Time;durP1;ratioP1;P1;durP2;ratioP2;P2;SDS_P1;SDS_P2;PMS_P1;PMS_P2;Temp;Humidity;BMP_temperature;BMP_pressure;BME280_temperature;BME280_humidity;BME280_pressure;Samples;Min_cycle;Max_cycle;Signal;HPM_P1;HPM_P2
2023/03/31 00:00:43;;;;;;;;;;;;;;;;;;5113334;28;1902;-78
2023/03/31 00:03:20;;;;;;;;;;;;;;;;;;5096105;28;1186;-78
2023/03/31 00:05:47;;;;;;;;;;;;;;;;;;5097628;28;1198;-78
2023/03/31 00:08:12;;;;;;;;;;;;;;;;;;5113492;28;1194;-78
2023/03/31 00:10:44;;;;;;;;;;;;;;;;;;5096573;28;1202;-78
2023/03/31 00:13:10;;;;;;;;;;;;;;;;;;5123298;28;1138;-78
2023/03/31 00:15:35;;;;;;;;;;;;;;;;;;5106048;28;1281;-79
2023/03/31 00:18:01;;;;;;;;;;;;;;;;;;5116101;28;1269;-79
2023/03/31 00:20:26;;;;;;;;;;;;;;;;;;5113064;28;1905;-79
2023/03/31 00:22:53;;;;;;;;;;;;;;;;;;5112856;28;1138;-79
2023/03/31 00:25:19;;;;;;;;;;;;;;;;;;5096178;28;1408;-79
2023/03/31 00:27:45;;;;;;;;;;;;;;;;;;5113200;28;1169;-79
2023/03/31 00:30:11;;;;;;;;;;;;;;;;;;5097610;28;1139;-79
2023/03/31 00:32:36;;;;;;;;;;;;;;;;;;5107647;28;1202;-81
2023/03/31 00:35:02;;;;;;;;;;;;;;;;;;5109006;28;1234;-78
2023/03/31 00:37:28;;;;;;;;;;;;;;;;;;5098575;28;1182;-79
2023/03/31 00:39:54;;;;;;;;;;;;;;;;;;5098157;28;1309;-79
2023/03/31 00:42:19;;;;;;;;;;;;;;;;;;5115457;28;1905;-79
2023/03/31 00:45:04;;;;;;;;;;;;;;;;;;5115371;28;1233;-79
2023/03/31 00:47:29;;;;;;;;;;;;;;;;;;5115712;28;1201;-79
2023/03/31 00:49:58;;;;;;;;;;;;;;;;;;5115074;28;820;-78
2023/03/31 00:52:26;;;;;;;;;;;;;;;;;;5115486;28;1201;-79
2023/03/31 00:54:58;;;;;;;;;;;;;;;;;;5114969;28;1477;-79
2023/03/31 00:57:24;;;;;;;;;;;;;;;;;;5115779;28;1189;-79
2023/03/31 00:59:52;;;;;;;;;;;;;;;;;;5098419;28;1435;-78
2023/03/31 01:02:19;;;;;;;;;;;;;;;;;;5115457;28;1925;-78
2023/03/31 01:04:53;;;;;;;;;;;;;;;;;;5114730;28;1189;-77
2023/03/31 01:07:32;;;;;;;;;;;;;;;;;;5115471;28;1197;-78
2023/03/31 01:10:00;;;;;;;;;;;;;;;;;;5115426;28;1209;-78
2023/03/31 01:12:26;;;;;;;;;;;;;;;;;;5115521;28;1185;-77
2023/03/31 01:14:52;;;;;;;;;;;;;;;;;;5115765;28;1162;-78
2023/03/31 01:17:20;;;;;;;;;;;;;;;;;;5115289;28;1197;-78
2023/03/31 01:19:48;;;;;;;;;;;;;;;;;;5115705;28;1281;-77
2023/03/31 01:22:13;;;;;;;;;;;;;;;;;;5117284;28;1906;-78
2023/03/31 01:25:00;;;;;;;;;;;;;;;;;;5115781;28;1248;-78
2023/03/31 01:27:44;;;;;;;;;;;;;;;;;;5127840;28;1217;-78
2023/03/31 01:30:18;;;;;;;;;;;;;;;;;;5124021;28;1288;-78
2023/03/31 01:32:44;;;;;;;;;;;;;;;;;;5128406;28;1288;-78
2023/03/31 01:35:09;;;;;;;;;;;;;;;;;;5128241;28;880;-78
2023/03/31 01:37:53;;;;;;;;;;;;;;;;;;5125848;28;1313;-80
2023/03/31 01:40:22;;;;;;;;;;;;;;;;;;5127918;28;1953;-79
2023/03/31 01:42:47;;;;;;;;;;;;;;;;;;5136629;28;1256;-78
2023/03/31 01:45:25;;;;;;;;;;;;;;;;;;5133537;28;1291;-79
2023/03/31 01:47:58;;;;;;;;;;;;;;;;;;5122388;28;1171;-78
2023/03/31 01:50:30;;;;;;;;;;;;;;;;;;5130731;28;1305;-79
2023/03/31 01:52:58;;;;;;;;;;;;;;;;;;5136351;28;1193;-77
2023/03/31 01:55:25;;;;;;;;;;;;;;;;;;5135775;28;1288;-79
2023/03/31 01:57:58;;;;;;;;;;;;;;;;;;5124274;28;1244;-80
2023/03/31 02:00:28;;;;;;;;;;;;;;;;;;5116437;28;1905;-79
2023/03/31 02:03:12;;;;;;;;;;;;;;;;;;5115549;28;1169;-80
2023/03/31 02:05:42;;;;;;;;;;;;;;;;;;5117170;28;918;-80
2023/03/31 02:08:20;;;;;;;;;;;;;;;;;;5114918;28;1206;-80
2023/03/31 02:10:47;;;;;;;;;;;;;;;;;;5116034;28;841;-79
2023/03/31 02:13:13;;;;;;;;;;;;;;;;;;5116053;28;844;-78
2023/03/31 02:15:41;;;;;;;;;;;;;;;;;;5115206;28;1186;-79
2023/03/31 02:18:10;;;;;;;;;;;;;;;;;;5114547;28;1147;-79
2023/03/31 02:20:36;;;;;;;;;;;;;;;;;;5114660;28;1909;-79
2023/03/31 02:23:02;;;;;;;;;;;;;;;;;;5115968;28;970;-79
2023/03/31 02:25:31;;;;;;;;;;;;;;;;;;5115309;28;891;-79
2023/03/31 02:28:01;;;;;;;;;;;;;;;;;;5114038;28;1162;-78
2023/03/31 02:30:32;;;;;;;;;;;;;;;;;;5113898;28;1157;-79
2023/03/31 02:32:58;;;;;;;;;;;;;;;;;;5113953;28;1237;-79
2023/03/31 02:35:24;;;;;;;;;;;;;;;;;;5113367;28;1166;-79
2023/03/31 02:37:49;;;;;;;;;;;;;;;;;;5096393;28;1321;-78
2023/03/31 02:40:17;;;;;;;;;;;;;;;;;;5113024;28;1917;-79
2023/03/31 02:42:42;;;;;;;;;;;;;;;;;;5113153;28;1288;-79
2023/03/31 02:45:26;;;;;;;;;;;;;;;;;;5112889;28;1411;-78
2023/03/31 02:47:52;;;;;;;;;;;;;;;;;;5113908;28;1170;-79
2023/03/31 02:50:19;;;;;;;;;;;;;;;;;;5096203;28;1250;-78
2023/03/31 02:52:47;;;;;;;;;;;;;;;;;;5113163;28;1265;-79
2023/03/31 02:55:26;;;;;;;;;;;;;;;;;;5113486;28;1300;-77
2023/03/31 02:57:52;;;;;;;;;;;;;;;;;;5113267;28;1312;-78
2023/03/31 03:00:23;;;;;;;;;;;;;;;;;;5113018;28;1918;-79
2023/03/31 03:03:13;;;;;;;;;;;;;;;;;;5114738;28;851;-79
2023/03/31 03:06:07;;;;;;;;;;;;;;;;;;5113009;28;1302;-79
2023/03/31 03:08:49;;;;;;;;;;;;;;;;;;5113207;28;1158;-79
2023/03/31 03:11:23;;;;;;;;;;;;;;;;;;5114061;28;873;-79
2023/03/31 03:13:55;;;;;;;;;;;;;;;;;;5113434;28;1209;-79
2023/03/31 03:16:23;;;;;;;;;;;;;;;;;;5114694;28;1017;-80
2023/03/31 03:19:07;;;;;;;;;;;;;;;;;;5113655;28;1268;-78
2023/03/31 03:21:32;;;;;;;;;;;;;;;;;;5113910;28;1910;-78
2023/03/31 03:24:00;;;;;;;;;;;;;;;;;;5113930;28;1253;-79
2023/03/31 03:26:29;;;;;;;;;;;;;;;;;;5097757;28;1388;-78
2023/03/31 03:28:55;;;;;;;;;;;;;;;;;;5113499;28;1193;-79
2023/03/31 03:31:22;;;;;;;;;;;;;;;;;;5113596;28;1193;-79
2023/03/31 03:33:51;;;;;;;;;;;;;;;;;;5096682;28;1336;-79
2023/03/31 03:36:16;;;;;;;;;;;;;;;;;;5113222;28;1252;-79
2023/03/31 03:38:42;;;;;;;;;;;;;;;;;;5113178;28;1236;-79
2023/03/31 03:41:07;;;;;;;;;;;;;;;;;;5096194;28;1918;-79
2023/03/31 03:43:33;;;;;;;;;;;;;;;;;;5096573;28;1197;-79
2023/03/31 03:45:58;;;;;;;;;;;;;;;;;;5113401;28;1187;-79
2023/03/31 03:48:23;;;;;;;;;;;;;;;;;;5112547;28;863;-80
2023/03/31 03:50:49;;;;;;;;;;;;;;;;;;5112769;28;1072;-79
2023/03/31 03:53:14;;;;;;;;;;;;;;;;;;5113171;28;1205;-79
2023/03/31 03:58:31;;;;;;;;;;;;;;;;;;5093681;22;1756;-64
2023/03/31 04:00:56;;;;;;;;;;;;;;;;;;5087607;22;1943;-64
2023/03/31 04:03:21;;;;;;;;;;;;;;;;;;5093047;28;938;-63
2023/03/31 04:05:48;;;;;;;;;;;;;;;;;;5092683;28;924;-62
2023/03/31 04:08:14;;;;;;;;;;;;;;;;;;5075088;28;1245;-64
2023/03/31 04:10:42;;;;;;;;;;;;;;;;;;5092957;28;860;-63
2023/03/31 04:13:08;;;;;;;;;;;;;;;;;;5097372;28;836;-63
2023/03/31 04:15:33;;;;;;;;;;;;;;;;;;5097286;28;900;-64
2023/03/31 04:17:58;;;;;;;;;;;;;;;;;;5096886;28;979;-64
2023/03/31 04:20:26;;;;;;;;;;;;;;;;;;5079161;28;1905;-64
2023/03/31 04:22:51;;;;;;;;;;;;;;;;;;5096711;28;919;-63
2023/03/31 04:25:17;;;;;;;;;;;;;;;;;;5079210;28;1285;-63
2023/03/31 04:27:49;;;;;;;;;;;;;;;;;;5078506;28;1254;-63
2023/03/31 04:30:24;;;;;;;;;;;;;;;;;;5097193;28;844;-63
2023/03/31 04:32:49;;;;;;;;;;;;;;;;;;5096539;28;915;-63
2023/03/31 04:35:16;;;;;;;;;;;;;;;;;;5096831;28;919;-64
2023/03/31 04:37:45;;;;;;;;;;;;;;;;;;5107747;28;1212;-68
2023/03/31 04:40:11;;;;;;;;;;;;;;;;;;5090354;28;1223;-69
2023/03/31 04:42:36;;;;;;;;;;;;;;;;;;5075106;28;1909;-68
2023/03/31 04:45:02;;;;;;;;;;;;;;;;;;5078912;28;829;-68
2023/03/31 04:47:27;;;;;;;;;;;;;;;;;;5091037;28;1189;-69
2023/03/31 04:49:53;;;;;;;;;;;;;;;;;;5082412;28;1437;-69
2023/03/31 04:52:18;;;;;;;;;;;;;;;;;;5099035;28;1234;-69
2023/03/31 04:54:43;;;;;;;;;;;;;;;;;;5082089;28;1159;-70
2023/03/31 04:57:09;;;;;;;;;;;;;;;;;;5099722;28;899;-69
2023/03/31 04:59:34;;;;;;;;;;;;;;;;;;5098984;28;1297;-69
2023/03/31 05:01:59;;;;;;;;;;;;;;;;;;5125146;28;1951;-69
2023/03/31 05:04:25;;;;;;;;;;;;;;;;;;5127785;28;899;-69
2023/03/31 05:06:50;;;;;;;;;;;;;;;;;;5118524;28;892;-69
2023/03/31 05:09:16;;;;;;;;;;;;;;;;;;5099787;28;864;-69
2023/03/31 05:11:41;;;;;;;;;;;;;;;;;;5117517;28;800;-69
2023/03/31 05:14:06;;;;;;;;;;;;;;;;;;5099327;28;840;-70
2023/03/31 05:16:31;;;;;;;;;;;;;;;;;;5116380;28;1421;-69
2023/03/31 05:18:57;;;;;;;;;;;;;;;;;;5092308;28;1271;-70
2023/03/31 05:21:22;;;;;;;;;;;;;;;;;;5099294;28;1953;-70
2023/03/31 05:23:48;;;;;;;;;;;;;;;;;;5115698;28;1027;-70
2023/03/31 05:26:13;;;;;;;;;;;;;;;;;;5098599;28;1206;-70
2023/03/31 05:28:39;;;;;;;;;;;;;;;;;;5117288;28;836;-69
2023/03/31 05:31:05;;;;;;;;;;;;;;;;;;5117028;28;876;-70
2023/03/31 05:33:31;;;;;;;;;;;;;;;;;;5081588;28;1334;-68
2023/03/31 05:35:56;;;;;;;;;;;;;;;;;;5097829;28;1293;-69
2023/03/31 05:38:22;;;;;;;;;;;;;;;;;;5116496;28;918;-69
2023/03/31 05:40:50;;;;;;;;;;;;;;;;;;5098052;28;1957;-69
2023/03/31 05:43:16;;;;;;;;;;;;;;;;;;5116126;28;1077;-70
2023/03/31 05:45:41;;;;;;;;;;;;;;;;;;5098169;28;958;-69
2023/03/31 05:48:06;;;;;;;;;;;;;;;;;;5080528;28;1328;-70
2023/03/31 05:50:31;;;;;;;;;;;;;;;;;;5115728;28;844;-69
2023/03/31 05:52:58;;;;;;;;;;;;;;;;;;5097326;28;1419;-70
2023/03/31 05:55:23;;;;;;;;;;;;;;;;;;5097918;28;1305;-69
2023/03/31 05:57:48;;;;;;;;;;;;;;;;;;5114622;28;1293;-70
2023/03/31 06:00:14;;;;;;;;;;;;;;;;;;5096999;28;1180;-70
2023/03/31 06:02:40;;;;;;;;;;;;;;;;;;5115910;28;1963;-69
2023/03/31 06:05:05;;;;;;;;;;;;;;;;;;5097359;28;1175;-70
2023/03/31 06:07:31;;;;;;;;;;;;;;;;;;5097704;28;1337;-70
2023/03/31 06:09:56;;;;;;;;;;;;;;;;;;5080210;28;1250;-69
2023/03/31 06:12:21;;;;;;;;;;;;;;;;;;5097732;28;903;-70
2023/03/31 06:14:47;;;;;;;;;;;;;;;;;;5079974;28;1293;-70
2023/03/31 06:17:12;;;;;;;;;;;;;;;;;;5115111;28;966;-69
2023/03/31 06:19:38;;;;;;;;;;;;;;;;;;5097010;28;1226;-70
2023/03/31 06:22:04;;;;;;;;;;;;;;;;;;5080282;28;1979;-70
2023/03/31 06:24:29;;;;;;;;;;;;;;;;;;5115703;28;840;-69
2023/03/31 06:26:55;;;;;;;;;;;;;;;;;;5096956;28;1203;-69
2023/03/31 06:29:20;;;;;;;;;;;;;;;;;;5097139;28;1222;-70
2023/03/31 06:31:45;;;;;;;;;;;;;;;;;;5096168;28;958;-70
2023/03/31 06:34:11;;;;;;;;;;;;;;;;;;5095737;28;1238;-70
2023/03/31 06:36:36;;;;;;;;;;;;;;;;;;5115130;28;879;-70
2023/03/31 06:39:01;;;;;;;;;;;;;;;;;;5097047;28;1405;-69
2023/03/31 06:41:27;;;;;;;;;;;;;;;;;;5115544;28;1909;-70
2023/03/31 06:43:52;;;;;;;;;;;;;;;;;;5117117;28;907;-70
2023/03/31 06:46:17;;;;;;;;;;;;;;;;;;5116305;28;1013;-70
2023/03/31 06:48:43;;;;;;;;;;;;;;;;;;5096877;28;893;-70
2023/03/31 06:51:08;;;;;;;;;;;;;;;;;;5115596;28;911;-69
2023/03/31 06:53:34;;;;;;;;;;;;;;;;;;5115650;28;884;-70
2023/03/31 06:55:59;;;;;;;;;;;;;;;;;;5115184;28;864;-69
2023/03/31 06:58:25;;;;;;;;;;;;;;;;;;5097106;28;1300;-70
2023/03/31 07:00:51;;;;;;;;;;;;;;;;;;5115677;28;1906;-70
2023/03/31 07:03:17;;;;;;;;;;;;;;;;;;5113525;28;1325;-70
2023/03/31 07:05:47;;;;;;;;;;;;;;;;;;5096907;28;1198;-70
2023/03/31 07:08:12;;;;;;;;;;;;;;;;;;5096713;28;1210;-70
2023/03/31 07:10:38;;;;;;;;;;;;;;;;;;5097396;28;896;-70
2023/03/31 07:13:03;;;;;;;;;;;;;;;;;;5096668;28;1203;-70
2023/03/31 07:15:29;;;;;;;;;;;;;;;;;;5098633;28;1139;-69
2023/03/31 07:18:01;;;;;;;;;;;;;;;;;;5076820;28;1219;-70
2023/03/31 07:20:27;;;;;;;;;;;;;;;;;;5094474;28;1913;-69
2023/03/31 07:22:52;;;;;;;;;;;;;;;;;;5094942;28;1199;-70
2023/03/31 07:25:18;;;;;;;;;;;;;;;;;;5113066;28;1072;-69
2023/03/31 07:27:43;;;;;;;;;;;;;;;;;;5095815;28;1294;-69
2023/03/31 07:30:19;;;;;;;;;;;;;;;;;;5114052;28;916;-69
2023/03/31 07:32:45;;;;;;;;;;;;;;;;;;5114254;28;828;-69
2023/03/31 07:35:10;;;;;;;;;;;;;;;;;;5114065;28;860;-69
2023/03/31 07:37:36;;;;;;;;;;;;;;;;;;5095938;28;947;-69
2023/03/31 07:40:04;;;;;;;;;;;;;;;;;;5113434;28;1152;-69
2023/03/31 07:42:29;;;;;;;;;;;;;;;;;;5113579;28;1897;-69
2023/03/31 07:44:54;;;;;;;;;;;;;;;;;;5113608;28;852;-69
2023/03/31 07:47:20;;;;;;;;;;;;;;;;;;5111237;28;1195;-69
2023/03/31 07:49:46;;;;;;;;;;;;;;;;;;5095622;28;904;-69
2023/03/31 07:52:15;;;;;;;;;;;;;;;;;;5113841;28;872;-69
2023/03/31 07:54:40;;;;;;;;;;;;;;;;;;5096284;28;1001;-69
2023/03/31 07:57:07;;;;;;;;;;;;;;;;;;5088430;28;1144;-69
2023/03/31 07:59:32;;;;;;;;;;;;;;;;;;5113195;28;1155;-71
2023/03/31 08:01:58;;;;;;;;;;;;;;;;;;5091549;28;1910;-71
2023/03/31 08:04:23;;;;;;;;;;;;;;;;;;5092989;28;986;-71
2023/03/31 08:06:50;;;;;;;;;;;;;;;;;;5092871;28;1199;-71
2023/03/31 08:09:16;;;;;;;;;;;;;;;;;;5092676;28;959;-71
2023/03/31 08:11:42;;;;;;;;;;;;;;;;;;5075558;28;828;-71
2023/03/31 08:14:07;;;;;;;;;;;;;;;;;;5073253;28;1239;-71
2023/03/31 08:16:33;;;;;;;;;;;;;;;;;;5050941;28;1304;-71
2023/03/31 08:18:58;;;;;;;;;;;;;;;;;;5091692;28;1160;-71
2023/03/31 08:21:23;;;;;;;;;;;;;;;;;;5091873;28;1981;-71
2023/03/31 08:23:49;;;;;;;;;;;;;;;;;;5093069;28;907;-71
2023/03/31 08:26:18;;;;;;;;;;;;;;;;;;5058828;28;856;-71
2023/03/31 08:28:44;;;;;;;;;;;;;;;;;;5094220;28;853;-70
2023/03/31 08:31:10;;;;;;;;;;;;;;;;;;5093605;28;887;-71
2023/03/31 08:33:36;;;;;;;;;;;;;;;;;;5097480;28;947;-71
2023/03/31 08:36:07;;;;;;;;;;;;;;;;;;5096486;28;1089;-71
2023/03/31 08:38:33;;;;;;;;;;;;;;;;;;5093588;28;864;-72
2023/03/31 08:41:01;;;;;;;;;;;;;;;;;;5093868;28;1959;-70
2023/03/31 08:43:39;;;;;;;;;;;;;;;;;;5093264;28;860;-70
2023/03/31 08:46:05;;;;;;;;;;;;;;;;;;5093480;28;849;-71
2023/03/31 08:48:37;;;;;;;;;;;;;;;;;;5093325;28;1003;-71
2023/03/31 08:51:15;;;;;;;;;;;;;;;;;;5093373;28;879;-71
2023/03/31 08:53:43;;;;;;;;;;;;;;;;;;5075232;28;1210;-64
2023/03/31 08:56:14;;;;;;;;;;;;;;;;;;5092694;28;1011;-64
2023/03/31 08:58:41;;;;;;;;;;;;;;;;;;5077808;28;1349;-65
2023/03/31 09:01:19;;;;;;;;;;;;;;;;;;5107642;28;1909;-64
2023/03/31 09:03:44;;;;;;;;;;;;;;;;;;5098016;28;1194;-64
2023/03/31 09:06:13;;;;;;;;;;;;;;;;;;5116271;28;836;-63
2023/03/31 09:08:41;;;;;;;;;;;;;;;;;;5116400;28;920;-64
2023/03/31 09:11:25;;;;;;;;;;;;;;;;;;5115984;28;848;-64
2023/03/31 09:14:00;;;;;;;;;;;;;;;;;;5116288;28;915;-64
2023/03/31 09:16:30;;;;;;;;;;;;;;;;;;5116460;28;868;-72
2023/03/31 09:18:59;;;;;;;;;;;;;;;;;;5115884;28;852;-71
2023/03/31 09:21:24;;;;;;;;;;;;;;;;;;5114561;28;1956;-71
2023/03/31 09:24:05;;;;;;;;;;;;;;;;;;5098621;28;1265;-71
2023/03/31 09:26:30;;;;;;;;;;;;;;;;;;5114579;28;935;-71
2023/03/31 09:28:58;;;;;;;;;;;;;;;;;;5115197;28;1034;-71
2023/03/31 09:31:23;;;;;;;;;;;;;;;;;;5097542;28;1198;-71
2023/03/31 09:33:50;;;;;;;;;;;;;;;;;;5116420;28;879;-71
2023/03/31 09:36:17;;;;;;;;;;;;;;;;;;5115872;28;912;-71
2023/03/31 09:38:43;;;;;;;;;;;;;;;;;;5115805;28;856;-71
2023/03/31 09:41:10;;;;;;;;;;;;;;;;;;5097708;28;1914;-71
2023/03/31 09:43:37;;;;;;;;;;;;;;;;;;5097359;28;1317;-71
2023/03/31 09:46:08;;;;;;;;;;;;;;;;;;5115663;28;840;-71
2023/03/31 09:48:35;;;;;;;;;;;;;;;;;;5097359;28;1380;-72
2023/03/31 09:51:02;;;;;;;;;;;;;;;;;;5097701;28;856;-71
2023/03/31 09:53:34;;;;;;;;;;;;;;;;;;5115471;28;994;-71
2023/03/31 09:56:01;;;;;;;;;;;;;;;;;;5097615;28;1340;-71
2023/03/31 09:58:30;;;;;;;;;;;;;;;;;;5115895;28;982;-71
2023/03/31 10:01:03;;;;;;;;;;;;;;;;;;5080962;28;1910;-71
2023/03/31 10:03:35;;;;;;;;;;;;;;;;;;5115715;28;923;-72
2023/03/31 10:06:01;;;;;;;;;;;;;;;;;;5116000;28;868;-72
2023/03/31 10:08:30;;;;;;;;;;;;;;;;;;5096778;28;1281;-72
2023/03/31 10:11:01;;;;;;;;;;;;;;;;;;5116007;28;852;-65
2023/03/31 10:13:46;;;;;;;;;;;;;;;;;;5115404;28;971;-65
2023/03/31 10:16:13;;;;;;;;;;;;;;;;;;5097519;28;1214;-65
2023/03/31 10:18:40;;;;;;;;;;;;;;;;;;5115451;28;914;-65
2023/03/31 10:21:06;;;;;;;;;;;;;;;;;;5097409;28;1905;-65
2023/03/31 10:23:33;;;;;;;;;;;;;;;;;;5115176;28;927;-65
2023/03/31 10:26:00;;;;;;;;;;;;;;;;;;5116146;28;967;-64
2023/03/31 10:28:26;;;;;;;;;;;;;;;;;;5115163;28;939;-64
2023/03/31 10:30:53;;;;;;;;;;;;;;;;;;5097154;28;1266;-66
2023/03/31 10:33:23;;;;;;;;;;;;;;;;;;5096809;28;1249;-64
2023/03/31 10:35:53;;;;;;;;;;;;;;;;;;5115388;28;851;-65
2023/03/31 10:38:26;;;;;;;;;;;;;;;;;;5114605;28;895;-62
2023/03/31 10:40:54;;;;;;;;;;;;;;;;;;5096235;28;2003;-64
2023/03/31 10:43:23;;;;;;;;;;;;;;;;;;5114259;28;785;-63
2023/03/31 10:45:49;;;;;;;;;;;;;;;;;;5114653;28;958;-63
2023/03/31 10:48:22;;;;;;;;;;;;;;;;;;5114155;28;875;-66
2023/03/31 10:50:47;;;;;;;;;;;;;;;;;;5095906;28;1190;-66
2023/03/31 10:53:14;;;;;;;;;;;;;;;;;;5095949;28;962;-66
2023/03/31 10:55:58;;;;;;;;;;;;;;;;;;5095568;28;1409;-66
2023/03/31 10:58:36;;;;;;;;;;;;;;;;;;5095204;28;1191;-66
2023/03/31 11:01:10;;;;;;;;;;;;;;;;;;5094875;28;1898;-66
2023/03/31 11:03:59;;;;;;;;;;;;;;;;;;5113845;28;926;-66
2023/03/31 11:06:25;;;;;;;;;;;;;;;;;;5113720;28;919;-67
2023/03/31 11:09:09;;;;;;;;;;;;;;;;;;5095635;28;1238;-66
2023/03/31 11:11:37;;;;;;;;;;;;;;;;;;5095869;28;1234;-65
2023/03/31 11:14:16;;;;;;;;;;;;;;;;;;5113694;28;926;-65
2023/03/31 11:16:50;;;;;;;;;;;;;;;;;;5114371;28;938;-73
2023/03/31 11:19:24;;;;;;;;;;;;;;;;;;5096172;28;1284;-73
2023/03/31 11:21:49;;;;;;;;;;;;;;;;;;5095517;28;1885;-73
2023/03/31 11:24:15;;;;;;;;;;;;;;;;;;5096134;28;1336;-73
2023/03/31 11:26:59;;;;;;;;;;;;;;;;;;5095414;28;1234;-72
2023/03/31 11:29:43;;;;;;;;;;;;;;;;;;5114032;28;942;-72
2023/03/31 11:32:27;;;;;;;;;;;;;;;;;;5113839;28;899;-72
2023/03/31 11:35:03;;;;;;;;;;;;;;;;;;5095510;28;1198;-73
2023/03/31 11:37:46;;;;;;;;;;;;;;;;;;5114143;28;859;-72
2023/03/31 11:40:20;;;;;;;;;;;;;;;;;;5113923;28;916;-73
2023/03/31 11:42:45;;;;;;;;;;;;;;;;;;5113695;28;1901;-72
2023/03/31 11:45:14;;;;;;;;;;;;;;;;;;5095674;28;1222;-72
2023/03/31 11:47:45;;;;;;;;;;;;;;;;;;5095334;28;1278;-73
2023/03/31 11:50:15;;;;;;;;;;;;;;;;;;5094435;28;1303;-72
2023/03/31 11:52:43;;;;;;;;;;;;;;;;;;5113062;28;939;-72
2023/03/31 11:55:15;;;;;;;;;;;;;;;;;;5095812;28;1331;-73
2023/03/31 11:57:49;;;;;;;;;;;;;;;;;;5095435;28;1219;-73
2023/03/31 12:00:20;;;;;;;;;;;;;;;;;;5113586;28;1325;-72
2023/03/31 12:02:49;;;;;;;;;;;;;;;;;;5095884;28;1914;-72
2023/03/31 12:05:16;;;;;;;;;;;;;;;;;;5114208;28;805;-73
2023/03/31 12:07:47;;;;;;;;;;;;;;;;;;5114013;28;949;-72
2023/03/31 12:10:20;;;;;;;;;;;;;;;;;;5095832;28;1421;-73
2023/03/31 12:12:50;;;;;;;;;;;;;;;;;;5094893;28;1190;-73
2023/03/31 12:15:15;;;;;;;;;;;;;;;;;;5113748;28;904;-72
2023/03/31 12:17:44;;;;;;;;;;;;;;;;;;5095108;28;1123;-72
2023/03/31 12:20:36;;;;;;;;;;;;;;;;;;5113452;28;865;-73
2023/03/31 12:23:04;;;;;;;;;;;;;;;;;;5108693;28;1974;-72
2023/03/31 12:25:38;;;;;;;;;;;;;;;;;;5113122;28;868;-73
2023/03/31 12:28:03;;;;;;;;;;;;;;;;;;5111536;28;1194;-72
2023/03/31 12:30:36;;;;;;;;;;;;;;;;;;5094570;28;1234;-72
2023/03/31 12:33:10;;;;;;;;;;;;;;;;;;5096985;28;1313;-72
2023/03/31 12:35:49;;;;;;;;;;;;;;;;;;5098203;28;1301;-72
2023/03/31 12:38:23;;;;;;;;;;;;;;;;;;5116828;28;919;-72
2023/03/31 12:41:13;;;;;;;;;;;;;;;;;;5116497;28;1970;-66
2023/03/31 12:43:57;;;;;;;;;;;;;;;;;;5116618;28;891;-65
2023/03/31 12:46:40;;;;;;;;;;;;;;;;;;5116903;28;796;-65
2023/03/31 12:49:15;;;;;;;;;;;;;;;;;;5099963;28;1210;-65
2023/03/31 12:51:44;;;;;;;;;;;;;;;;;;5119167;28;892;-65
2023/03/31 12:54:26;;;;;;;;;;;;;;;;;;5118133;28;887;-65
2023/03/31 12:57:00;;;;;;;;;;;;;;;;;;5114995;28;1298;-65
2023/03/31 12:59:42;;;;;;;;;;;;;;;;;;5098313;28;1317;-65
2023/03/31 13:02:08;;;;;;;;;;;;;;;;;;5097980;28;1898;-66
2023/03/31 13:04:33;;;;;;;;;;;;;;;;;;5098018;28;1341;-65
2023/03/31 13:06:59;;;;;;;;;;;;;;;;;;5116727;28;827;-66
2023/03/31 13:09:38;;;;;;;;;;;;;;;;;;5098856;28;844;-65
2023/03/31 13:12:07;;;;;;;;;;;;;;;;;;5116703;28;926;-65
2023/03/31 13:14:37;;;;;;;;;;;;;;;;;;5116712;28;855;-65
2023/03/31 13:17:13;;;;;;;;;;;;;;;;;;5116510;28;844;-66
2023/03/31 13:19:39;;;;;;;;;;;;;;;;;;5116314;28;915;-66
2023/03/31 13:22:05;;;;;;;;;;;;;;;;;;5097817;28;1964;-66
2023/03/31 13:24:31;;;;;;;;;;;;;;;;;;5097889;28;913;-66
2023/03/31 13:26:58;;;;;;;;;;;;;;;;;;5097768;28;1012;-66
2023/03/31 13:29:43;;;;;;;;;;;;;;;;;;5097944;28;875;-67
2023/03/31 13:32:11;;;;;;;;;;;;;;;;;;5114279;28;1160;-66
2023/03/31 13:34:42;;;;;;;;;;;;;;;;;;5095139;28;1237;-67
2023/03/31 13:37:08;;;;;;;;;;;;;;;;;;5081632;28;1239;-67
2023/03/31 13:39:44;;;;;;;;;;;;;;;;;;5102281;28;1183;-67
2023/03/31 13:42:28;;;;;;;;;;;;;;;;;;5113019;28;1975;-67
2023/03/31 13:44:54;;;;;;;;;;;;;;;;;;5113293;28;1191;-67
2023/03/31 13:47:38;;;;;;;;;;;;;;;;;;5096447;28;1373;-67
2023/03/31 13:50:07;;;;;;;;;;;;;;;;;;5096985;28;1234;-67
2023/03/31 13:52:46;;;;;;;;;;;;;;;;;;5088524;28;1337;-67
2023/03/31 13:55:41;;;;;;;;;;;;;;;;;;5114801;28;1191;-66
2023/03/31 13:58:45;;;;;;;;;;;;;;;;;;5011659;28;1219;-67
2023/03/31 14:01:28;;;;;;;;;;;;;;;;;;5004541;28;1963;-66
2023/03/31 14:04:10;;;;;;;;;;;;;;;;;;5010936;28;1256;-67
2023/03/31 14:06:39;;;;;;;;;;;;;;;;;;5048377;28;1249;-67
2023/03/31 14:09:06;;;;;;;;;;;;;;;;;;5056828;28;1337;-67
2023/03/31 14:11:32;;;;;;;;;;;;;;;;;;5056264;28;1247;-67
2023/03/31 14:13:58;;;;;;;;;;;;;;;;;;5074534;28;1002;-67
2023/03/31 14:16:24;;;;;;;;;;;;;;;;;;5074643;28;1262;-66
2023/03/31 14:18:52;;;;;;;;;;;;;;;;;;5074202;28;908;-66
2023/03/31 14:21:19;;;;;;;;;;;;;;;;;;5056413;28;1901;-67
2023/03/31 14:23:57;;;;;;;;;;;;;;;;;;5074436;28;973;-67
2023/03/31 14:26:35;;;;;;;;;;;;;;;;;;5074777;28;875;-67
2023/03/31 14:29:17;;;;;;;;;;;;;;;;;;5056535;28;1214;-67
2023/03/31 14:32:08;;;;;;;;;;;;;;;;;;5056355;28;1519;-67
2023/03/31 14:34:58;;;;;;;;;;;;;;;;;;5042475;28;1193;-67
2023/03/31 14:37:26;;;;;;;;;;;;;;;;;;5073039;28;1238;-67
2023/03/31 14:39:55;;;;;;;;;;;;;;;;;;5073844;28;836;-67
2023/03/31 14:42:24;;;;;;;;;;;;;;;;;;5073783;28;2035;-67
2023/03/31 14:44:54;;;;;;;;;;;;;;;;;;5073471;28;825;-67
2023/03/31 14:47:20;;;;;;;;;;;;;;;;;;5056037;28;1334;-67
2023/03/31 14:49:46;;;;;;;;;;;;;;;;;;5073882;28;884;-72
2023/03/31 14:52:18;;;;;;;;;;;;;;;;;;5074214;28;1043;-72
2023/03/31 14:54:46;;;;;;;;;;;;;;;;;;5055611;28;1175;-71
2023/03/31 14:57:12;;;;;;;;;;;;;;;;;;5056470;28;1326;-71
2023/03/31 14:59:38;;;;;;;;;;;;;;;;;;5056009;28;1208;-71
2023/03/31 15:02:04;;;;;;;;;;;;;;;;;;5054299;28;1973;-71
2023/03/31 15:04:31;;;;;;;;;;;;;;;;;;5053559;28;821;-71
2023/03/31 15:06:59;;;;;;;;;;;;;;;;;;5053836;28;915;-71
2023/03/31 15:09:27;;;;;;;;;;;;;;;;;;5052791;28;1337;-72
2023/03/31 15:11:55;;;;;;;;;;;;;;;;;;5035810;28;1214;-71
2023/03/31 15:14:21;;;;;;;;;;;;;;;;;;5054128;28;821;-71
2023/03/31 15:16:49;;;;;;;;;;;;;;;;;;5036087;28;1282;-72
2023/03/31 15:19:17;;;;;;;;;;;;;;;;;;5053575;28;912;-71
2023/03/31 15:21:43;;;;;;;;;;;;;;;;;;5036040;28;1894;-71
2023/03/31 15:24:12;;;;;;;;;;;;;;;;;;5054315;28;935;-73
2023/03/31 15:26:48;;;;;;;;;;;;;;;;;;5036448;28;1149;-72
2023/03/31 15:29:17;;;;;;;;;;;;;;;;;;5054453;28;1058;-72
2023/03/31 15:31:43;;;;;;;;;;;;;;;;;;5035881;28;1188;-72
2023/03/31 15:34:32;;;;;;;;;;;;;;;;;;5036043;28;1313;-72
2023/03/31 15:36:58;;;;;;;;;;;;;;;;;;5042814;28;1433;-73
2023/03/31 15:39:25;;;;;;;;;;;;;;;;;;5053839;28;904;-72
2023/03/31 15:41:51;;;;;;;;;;;;;;;;;;5056927;28;1959;-71
2023/03/31 15:44:35;;;;;;;;;;;;;;;;;;5053469;28;864;-72
2023/03/31 15:47:01;;;;;;;;;;;;;;;;;;5053846;28;762;-73
2023/03/31 15:49:27;;;;;;;;;;;;;;;;;;5053461;28;900;-72
2023/03/31 15:51:53;;;;;;;;;;;;;;;;;;5051585;28;1204;-73
2023/03/31 15:54:39;;;;;;;;;;;;;;;;;;5035026;28;1284;-72
2023/03/31 15:57:06;;;;;;;;;;;;;;;;;;5052740;28;829;-73
2023/03/31 15:59:49;;;;;;;;;;;;;;;;;;5035347;28;1304;-72
2023/03/31 16:02:16;;;;;;;;;;;;;;;;;;5035142;28;1895;-72
2023/03/31 16:04:41;;;;;;;;;;;;;;;;;;5034952;28;1407;-72
2023/03/31 16:07:23;;;;;;;;;;;;;;;;;;5052705;28;896;-72
2023/03/31 16:10:01;;;;;;;;;;;;;;;;;;5035459;28;1128;-72
2023/03/31 16:12:35;;;;;;;;;;;;;;;;;;5052001;28;1145;-72
2023/03/31 16:15:03;;;;;;;;;;;;;;;;;;5052813;28;926;-72
2023/03/31 16:17:28;;;;;;;;;;;;;;;;;;5052176;28;1303;-72
2023/03/31 16:20:00;;;;;;;;;;;;;;;;;;5051977;28;1216;-73
2023/03/31 16:22:30;;;;;;;;;;;;;;;;;;5053281;28;1914;-72
2023/03/31 16:24:55;;;;;;;;;;;;;;;;;;5034216;28;1187;-67
2023/03/31 16:27:21;;;;;;;;;;;;;;;;;;5052287;28;959;-67
2023/03/31 16:29:46;;;;;;;;;;;;;;;;;;5034588;28;1334;-68
2023/03/31 16:32:17;;;;;;;;;;;;;;;;;;5052464;28;872;-67
2023/03/31 16:34:52;;;;;;;;;;;;;;;;;;5051098;28;1274;-67
2023/03/31 16:37:17;;;;;;;;;;;;;;;;;;5049262;28;1260;-67
2023/03/31 16:39:42;;;;;;;;;;;;;;;;;;5055169;28;1291;-67
2023/03/31 16:42:08;;;;;;;;;;;;;;;;;;5050538;28;1906;-67
2023/03/31 16:44:33;;;;;;;;;;;;;;;;;;5048799;28;1137;-67
2023/03/31 16:46:59;;;;;;;;;;;;;;;;;;5034782;28;1267;-67
2023/03/31 16:49:25;;;;;;;;;;;;;;;;;;5032951;28;1333;-67
2023/03/31 16:51:51;;;;;;;;;;;;;;;;;;5032200;28;1287;-67
2023/03/31 16:54:16;;;;;;;;;;;;;;;;;;5050053;28;1215;-67
2023/03/31 16:56:42;;;;;;;;;;;;;;;;;;5063338;28;1212;-66
2023/03/31 16:59:07;;;;;;;;;;;;;;;;;;5037211;28;1248;-67
2023/03/31 17:01:33;;;;;;;;;;;;;;;;;;5045442;28;1894;-67
2023/03/31 17:03:58;;;;;;;;;;;;;;;;;;5062346;28;1129;-67
2023/03/31 17:06:23;;;;;;;;;;;;;;;;;;5073193;28;1279;-67
2023/03/31 17:08:49;;;;;;;;;;;;;;;;;;5071267;28;1330;-67
2023/03/31 17:11:14;;;;;;;;;;;;;;;;;;5076148;28;1207;-67
2023/03/31 17:13:41;;;;;;;;;;;;;;;;;;5080786;28;1136;-67
2023/03/31 17:16:06;;;;;;;;;;;;;;;;;;5062217;28;1283;-67
2023/03/31 17:18:32;;;;;;;;;;;;;;;;;;5063691;28;1342;-67
2023/03/31 17:21:05;;;;;;;;;;;;;;;;;;5060489;28;1902;-67
2023/03/31 17:23:30;;;;;;;;;;;;;;;;;;5065916;28;1211;-68
2023/03/31 17:25:56;;;;;;;;;;;;;;;;;;5083936;28;1164;-67